createdAt,value
2018-10-18T00:02:17.440Z,31.50
2018-10-18T00:04:45.490Z,33.67
2018-10-18T00:07:12.921Z,32.83
2018-10-18T00:09:40.973Z,37.07
2018-10-18T00:14:58.456Z,34.17
2018-10-18T00:17:33.167Z,32.07
2018-10-18T00:22:53.030Z,33.83
2018-10-18T00:25:22.448Z,34.60
2018-10-18T00:27:49.941Z,31.67
2018-10-18T00:30:17.547Z,33.40
2018-10-18T00:32:45.058Z,32.40
2018-10-18T00:35:14.977Z,30.13
2018-10-18T00:37:42.677Z,31.67
2018-10-18T00:40:11.463Z,33.53
2018-10-18T00:42:39.048Z,32.63
2018-10-18T00:45:07.125Z,33.50
2018-10-18T00:47:34.727Z,31.57
2018-10-18T00:50:05.542Z,33.27
2018-10-18T00:52:36.416Z,34.13
2018-10-18T00:55:05.185Z,32.83
2018-10-18T00:57:34.690Z,36.20
2018-10-18T01:00:04.764Z,35.53
2018-10-18T01:02:32.242Z,37.63
2018-10-18T01:05:01.342Z,37.27
2018-10-18T01:07:29.342Z,36.23
2018-10-18T01:09:56.743Z,38.40
2018-10-18T01:12:24.907Z,35.20
2018-10-18T01:14:52.251Z,34.37
2018-10-18T01:17:19.591Z,34.03
2018-10-18T01:19:47.719Z,35.63
2018-10-18T01:22:16.755Z,32.17
2018-10-18T01:24:45.222Z,29.77
2018-10-18T01:27:12.606Z,28.50
2018-10-18T01:29:39.962Z,29.53
2018-10-18T01:32:07.507Z,29.03
2018-10-18T01:34:35.475Z,27.97
2018-10-18T01:37:04.538Z,27.93
2018-10-18T01:39:34.177Z,28.40
2018-10-18T01:42:01.937Z,27.83
2018-10-18T01:44:29.244Z,26.77
2018-10-18T01:46:56.615Z,26.60
2018-10-18T01:49:24.174Z,28.03
2018-10-18T01:52:14.792Z,30.37
2018-10-18T01:54:45.195Z,28.97
2018-10-18T01:57:15.798Z,31.40
2018-10-18T01:59:43.338Z,32.50
2018-10-18T02:02:10.829Z,29.97
2018-10-18T02:04:39.328Z,32.90
2018-10-18T02:07:07.027Z,32.33
2018-10-18T02:09:34.583Z,33.10
2018-10-18T02:12:02.439Z,34.10
2018-10-18T02:14:31.073Z,34.37
2018-10-18T02:16:58.656Z,36.97
2018-10-18T02:19:26.187Z,34.93
2018-10-18T02:21:54.415Z,40.20
2018-10-18T02:24:23.891Z,40.80
2018-10-18T02:26:54.165Z,38.37
2018-10-18T02:29:23.662Z,37.63
2018-10-18T02:31:53.464Z,36.53
2018-10-18T02:34:22.810Z,38.60
2018-10-18T02:36:50.534Z,38.23
2018-10-18T02:39:18.073Z,39.90
2018-10-18T02:41:46.199Z,41.20
2018-10-18T02:44:14.235Z,36.73
2018-10-18T02:46:41.800Z,38.77
2018-10-18T02:49:09.517Z,40.30
2018-10-18T02:51:36.950Z,37.87
2018-10-18T02:54:05.414Z,40.63
2018-10-18T02:56:32.847Z,42.73
2018-10-18T02:59:03.122Z,38.63
2018-10-18T03:01:32.996Z,34.57
2018-10-18T03:04:00.798Z,33.90
2018-10-18T03:06:28.408Z,32.43
2018-10-18T03:08:56.585Z,35.13
2018-10-18T03:11:24.336Z,34.57
2018-10-18T03:13:51.712Z,36.20
2018-10-18T03:16:20.789Z,35.70
2018-10-18T03:18:50.503Z,36.20
2018-10-18T03:21:19.315Z,35.10
2018-10-18T03:23:48.978Z,36.67
2018-10-18T03:26:16.514Z,40.83
2018-10-18T03:28:44.929Z,37.93
2018-10-18T03:31:13.543Z,34.87
2018-10-18T03:33:41.015Z,42.90
2018-10-18T03:36:08.535Z,41.97
2018-10-18T03:38:36.215Z,40.07
2018-10-18T03:41:04.120Z,41.87
2018-10-18T03:43:32.122Z,43.40
2018-10-18T03:45:59.552Z,41.90
2018-10-18T03:48:30.740Z,44.40
2018-10-18T03:50:58.816Z,43.40
2018-10-18T03:53:28.515Z,42.00
2018-10-18T03:55:56.030Z,41.40
2018-10-18T03:58:23.402Z,40.30
2018-10-18T04:00:50.968Z,43.27
2018-10-18T04:03:19.413Z,44.60
2018-10-18T04:05:46.997Z,43.77
2018-10-18T04:08:14.536Z,44.90
2018-10-18T04:10:42.652Z,45.30
2018-10-18T04:13:11.432Z,46.70
2018-10-18T04:15:38.773Z,40.80
2018-10-18T04:18:06.673Z,44.70
2018-10-18T04:20:34.149Z,43.47
2018-10-18T04:23:04.859Z,44.80
2018-10-18T04:25:34.026Z,43.40
2018-10-18T04:28:06.697Z,45.87
2018-10-18T04:30:35.732Z,44.50
2018-10-18T04:33:04.890Z,45.33
2018-10-18T04:35:32.595Z,45.50
2018-10-18T04:38:00.159Z,44.63
2018-10-18T04:40:28.745Z,45.30
2018-10-18T04:42:56.316Z,42.27
2018-10-18T04:45:24.014Z,39.37
2018-10-18T04:47:53.051Z,42.87
2018-10-18T04:50:21.643Z,42.03
2018-10-18T04:52:53.319Z,42.80
2018-10-18T04:55:20.715Z,42.57
2018-10-18T04:57:48.066Z,42.77
2018-10-18T05:00:16.293Z,43.27
2018-10-18T05:02:44.342Z,44.03
2018-10-18T05:05:23.097Z,44.27
2018-10-18T05:07:50.493Z,44.43
2018-10-18T05:10:18.112Z,42.67
2018-10-18T05:12:45.648Z,43.37
2018-10-18T05:15:14.592Z,44.43
2018-10-18T05:17:43.167Z,44.70
2018-10-18T05:20:13.981Z,43.03
2018-10-18T05:22:42.520Z,41.60
2018-10-18T05:25:10.622Z,44.47
2018-10-18T05:27:39.433Z,42.00
2018-10-18T05:30:09.348Z,42.73
2018-10-18T05:32:38.840Z,42.97
2018-10-18T05:35:06.904Z,43.50
2018-10-18T05:37:46.711Z,42.27
2018-10-18T05:40:16.575Z,41.60
2018-10-18T05:42:45.142Z,41.20
2018-10-18T05:45:18.435Z,43.77
2018-10-18T05:47:47.439Z,41.27
2018-10-18T05:50:17.882Z,42.87
2018-10-18T05:52:49.730Z,44.20
2018-10-18T05:55:18.102Z,44.10
2018-10-18T05:57:52.908Z,42.70
2018-10-18T06:00:23.036Z,43.07
2018-10-18T06:02:51.413Z,43.77
2018-10-18T06:05:20.771Z,40.23
2018-10-18T06:07:54.037Z,42.77
2018-10-18T06:10:33.552Z,40.27
2018-10-18T06:13:02.556Z,39.63
2018-10-18T06:15:40.256Z,41.47
2018-10-18T06:18:09.960Z,42.40
2018-10-18T06:20:38.583Z,40.77
2018-10-18T06:23:06.940Z,40.23
2018-10-18T06:25:34.839Z,42.80
2018-10-18T06:28:02.819Z,40.10
2018-10-18T06:30:30.728Z,42.13
2018-10-18T06:32:59.064Z,40.80
2018-10-18T06:35:26.920Z,40.20
2018-10-18T06:37:55.538Z,42.10
2018-10-18T06:40:24.579Z,39.97
2018-10-18T06:42:53.164Z,42.67
2018-10-18T06:45:21.453Z,40.00
2018-10-18T06:47:51.128Z,38.80
2018-10-18T06:50:19.863Z,38.80
2018-10-18T06:52:47.502Z,39.83
2018-10-18T06:55:16.393Z,38.37
2018-10-18T06:57:45.545Z,37.37
2018-10-18T07:00:21.223Z,36.30
2018-10-18T07:02:49.165Z,36.03
2018-10-18T07:05:17.487Z,37.97
2018-10-18T07:07:46.400Z,37.17
2018-10-18T07:10:14.557Z,35.47
2018-10-18T07:12:43.017Z,37.30
2018-10-18T07:15:12.977Z,34.87
2018-10-18T07:17:41.816Z,36.47
2018-10-18T07:20:11.361Z,35.53
2018-10-18T07:22:39.558Z,34.87
2018-10-18T07:25:12.549Z,36.23
2018-10-18T07:27:41.446Z,34.97
2018-10-18T07:30:11.581Z,34.17
2018-10-18T07:32:39.702Z,31.90
2018-10-18T07:35:08.405Z,33.07
2018-10-18T07:37:35.999Z,34.27
2018-10-18T07:40:03.874Z,30.80
2018-10-18T07:42:31.289Z,31.50
2018-10-18T07:45:00.363Z,31.73
2018-10-18T07:47:28.446Z,29.33
2018-10-18T07:49:56.159Z,32.20
2018-10-18T07:52:23.703Z,33.13
2018-10-18T07:54:52.058Z,31.10
2018-10-18T07:57:20.042Z,33.30
2018-10-18T07:59:48.147Z,30.60
2018-10-18T08:02:16.277Z,31.07
2018-10-18T08:04:44.283Z,31.87
2018-10-18T08:07:13.861Z,31.07
2018-10-18T08:09:44.233Z,31.13
2018-10-18T08:12:13.026Z,29.57
2018-10-18T08:14:41.946Z,29.97
2018-10-18T08:17:10.786Z,28.77
2018-10-18T08:19:41.063Z,31.50
2018-10-18T08:22:09.728Z,28.10
2018-10-18T08:24:38.217Z,28.53
2018-10-18T08:27:06.847Z,29.70
2018-10-18T08:29:34.730Z,29.13
2018-10-18T08:32:04.311Z,29.73
2018-10-18T08:34:31.982Z,33.67
2018-10-18T08:37:00.732Z,32.10
2018-10-18T08:39:28.807Z,32.57
2018-10-18T08:41:56.606Z,32.27
2018-10-18T08:44:24.486Z,31.90
2018-10-18T08:46:52.828Z,32.10
2018-10-18T08:49:21.078Z,30.90
2018-10-18T08:51:48.964Z,30.87
2018-10-18T08:54:17.703Z,29.10
2018-10-18T08:57:20.763Z,29.10
2018-10-18T08:59:48.263Z,30.67
2018-10-18T09:02:15.774Z,30.53
2018-10-18T09:04:43.842Z,31.10
2018-10-18T09:07:11.412Z,30.87
2018-10-18T09:09:39.731Z,29.43
2018-10-18T09:12:07.333Z,30.47
2018-10-18T09:14:34.940Z,30.63
2018-10-18T09:17:02.937Z,29.60
2018-10-18T09:19:31.790Z,30.67
2018-10-18T09:21:59.997Z,30.90
2018-10-18T09:24:28.588Z,29.33
2018-10-18T09:26:56.197Z,29.17
2018-10-18T09:29:23.872Z,28.53
2018-10-18T09:31:52.113Z,28.20
2018-10-18T09:34:19.627Z,28.50
2018-10-18T09:36:47.064Z,28.73
2018-10-18T09:39:15.385Z,27.10
2018-10-18T09:41:43.871Z,28.60
2018-10-18T09:44:11.573Z,28.03
2018-10-18T09:46:39.143Z,30.07
2018-10-18T09:49:06.759Z,30.00
2018-10-18T09:51:34.844Z,29.67
2018-10-18T09:54:03.026Z,30.87
2018-10-18T09:56:31.251Z,28.60
2018-10-18T09:58:58.768Z,29.80
2018-10-18T10:01:32.184Z,30.27
2018-10-18T10:04:01.995Z,31.87
2018-10-18T10:06:31.272Z,31.63
2018-10-18T10:09:01.409Z,31.87
2018-10-18T10:11:30.109Z,31.07
2018-10-18T10:13:58.431Z,31.57
2018-10-18T10:16:26.542Z,32.40
2018-10-18T10:18:54.230Z,31.80
2018-10-18T10:21:22.049Z,31.80
2018-10-18T10:23:49.547Z,31.77
2018-10-18T10:26:17.041Z,31.80
2018-10-18T10:28:45.328Z,33.80
2018-10-18T10:31:13.333Z,31.20
2018-10-18T10:33:40.908Z,31.17
2018-10-18T10:36:08.581Z,32.27
2018-10-18T10:38:36.788Z,32.40
2018-10-18T10:41:04.692Z,32.03
2018-10-18T10:43:32.295Z,33.57
2018-10-18T10:45:59.967Z,34.93
2018-10-18T10:48:27.799Z,34.87
2018-10-18T10:50:55.757Z,35.80
2018-10-18T10:53:23.774Z,36.37
2018-10-18T10:55:52.474Z,36.80
2018-10-18T10:58:21.988Z,36.23
2018-10-18T11:01:09.389Z,38.80
2018-10-18T11:03:39.246Z,37.03
2018-10-18T11:06:09.118Z,35.53
2018-10-18T11:08:40.206Z,36.33
2018-10-18T11:11:11.408Z,36.13
2018-10-18T11:13:40.741Z,32.30
2018-10-18T11:16:11.337Z,34.00
2018-10-18T11:18:39.707Z,32.87
2018-10-18T11:21:08.435Z,34.20
2018-10-18T11:23:36.078Z,33.63
2018-10-18T11:26:03.924Z,36.80
2018-10-18T11:28:31.477Z,33.67
2018-10-18T11:31:00.702Z,32.40
2018-10-18T11:33:28.943Z,31.70
2018-10-18T11:35:56.836Z,33.57
2018-10-18T11:38:26.378Z,32.53
2018-10-18T11:40:56.559Z,31.57
2018-10-18T11:43:28.088Z,33.23
2018-10-18T11:45:58.720Z,31.10
2018-10-18T11:48:31.534Z,30.10
2018-10-18T11:51:01.234Z,27.23
2018-10-18T11:53:32.608Z,28.07
2018-10-18T11:56:00.928Z,29.00
2018-10-18T11:58:31.880Z,29.53
2018-10-18T12:01:01.178Z,28.83
2018-10-18T12:03:32.280Z,28.27
2018-10-18T12:06:01.102Z,28.93
2018-10-18T12:08:29.938Z,28.03
2018-10-18T12:11:00.238Z,29.33
2018-10-18T12:13:31.980Z,28.63
2018-10-18T12:16:01.949Z,29.63
2018-10-18T12:18:31.402Z,27.93
2018-10-18T12:21:00.016Z,27.77
2018-10-18T12:23:33.985Z,27.60
2018-10-18T12:26:08.377Z,27.03
2018-10-18T12:28:43.945Z,26.57
2018-10-18T12:31:17.720Z,27.17
2018-10-18T12:33:53.953Z,25.53
2018-10-18T12:36:26.589Z,24.17
2018-10-18T12:38:57.339Z,23.90
2018-10-18T12:41:26.978Z,25.57
2018-10-18T12:43:56.395Z,24.73
2018-10-18T12:46:27.482Z,23.13
2018-10-18T12:48:57.505Z,23.10
2018-10-18T12:51:26.844Z,21.60
2018-10-18T12:53:56.012Z,21.70
2018-10-18T12:56:26.317Z,22.87
2018-10-18T12:58:59.770Z,21.40
2018-10-18T13:01:36.795Z,22.20
2018-10-18T13:04:07.192Z,21.60
2018-10-18T13:06:37.848Z,21.13
2018-10-18T13:09:14.385Z,20.73
2018-10-18T13:11:46.028Z,21.07
2018-10-18T13:14:14.903Z,20.90
2018-10-18T13:16:44.307Z,21.93
2018-10-18T13:19:14.394Z,20.53
2018-10-18T13:21:45.724Z,21.13
2018-10-18T13:24:15.255Z,21.67
2018-10-18T13:26:46.143Z,22.03
2018-10-18T13:29:15.267Z,21.23
2018-10-18T13:31:44.317Z,19.97
2018-10-18T13:34:13.247Z,19.60
2018-10-18T13:36:42.266Z,20.40
2018-10-18T13:39:14.936Z,20.80
2018-10-18T13:41:45.174Z,19.00
2018-10-18T13:44:14.401Z,20.77
2018-10-18T13:46:43.357Z,22.03
2018-10-18T13:49:13.732Z,20.40
2018-10-18T13:51:42.190Z,20.53
2018-10-18T13:54:11.880Z,21.80
2018-10-18T13:56:41.049Z,22.97
2018-10-18T13:59:20.685Z,21.17
2018-10-18T14:01:50.198Z,21.20
2018-10-18T14:04:18.550Z,20.30
2018-10-18T14:06:48.090Z,23.37
2018-10-18T14:09:18.551Z,22.30
2018-10-18T14:11:48.955Z,22.93
2018-10-18T14:14:19.846Z,21.90
2018-10-18T14:16:57.537Z,20.93
2018-10-18T14:19:28.203Z,22.03
2018-10-18T14:21:58.568Z,20.47
2018-10-18T14:24:28.386Z,22.63
2018-10-18T14:26:57.264Z,22.80
2018-10-18T14:29:26.563Z,24.03
2018-10-18T14:31:54.981Z,22.93
2018-10-18T14:34:23.732Z,24.03
2018-10-18T14:36:53.259Z,24.13
2018-10-18T14:39:23.700Z,25.43
2018-10-18T14:41:53.423Z,23.47
2018-10-18T14:44:22.039Z,23.90
2018-10-18T14:46:52.832Z,23.33
2018-10-18T14:49:23.364Z,26.43
2018-10-18T14:51:52.069Z,24.70
2018-10-18T14:54:24.116Z,25.30
2018-10-18T14:56:53.125Z,25.10
2018-10-18T14:59:23.238Z,25.37
2018-10-18T15:01:54.724Z,24.73
2018-10-18T15:04:24.220Z,24.90
2018-10-18T15:06:53.090Z,26.87
2018-10-18T15:09:22.078Z,29.10
2018-10-18T15:11:51.627Z,29.47
2018-10-18T15:14:21.326Z,27.07
2018-10-18T15:16:52.215Z,27.10
2018-10-18T15:19:21.207Z,27.23
2018-10-18T15:21:49.363Z,22.17
2018-10-18T15:24:21.606Z,23.30
2018-10-18T15:26:53.396Z,23.23
2018-10-18T15:29:23.996Z,26.00
2018-10-18T15:31:55.362Z,24.03
2018-10-18T15:34:26.022Z,23.33
2018-10-18T15:36:59.101Z,24.33
2018-10-18T15:39:29.680Z,24.07
2018-10-18T15:42:03.084Z,22.97
2018-10-18T15:44:37.234Z,26.53
2018-10-18T15:47:08.049Z,26.33
2018-10-18T15:49:38.255Z,24.63
2018-10-18T15:52:16.760Z,25.50
2018-10-18T15:54:54.923Z,24.57
2018-10-18T15:57:25.295Z,24.37
2018-10-18T15:59:57.069Z,24.40
2018-10-18T16:02:28.998Z,24.37
2018-10-18T16:05:04.566Z,25.20
2018-10-18T16:07:34.329Z,26.60
2018-10-18T16:10:06.546Z,26.47
2018-10-18T16:12:36.316Z,26.70
2018-10-18T16:15:05.586Z,26.87
2018-10-18T16:17:34.249Z,25.37
2018-10-18T16:20:03.154Z,24.90
2018-10-18T16:22:33.795Z,25.23
2018-10-18T16:25:33.406Z,24.60
2018-10-18T16:28:01.733Z,24.33
2018-10-18T16:30:29.734Z,29.17
2018-10-18T16:32:59.526Z,31.50
2018-10-18T16:35:28.048Z,32.97
2018-10-18T16:37:56.697Z,34.40
2018-10-18T16:40:24.979Z,32.70
2018-10-18T16:42:53.902Z,31.67
2018-10-18T16:45:22.446Z,32.03
2018-10-18T16:47:50.549Z,30.77
2018-10-18T16:50:19.452Z,29.37
2018-10-18T16:52:48.593Z,33.57
2018-10-18T16:55:18.164Z,32.93
2018-10-18T16:57:46.016Z,32.67
2018-10-18T17:00:56.055Z,31.43
2018-10-18T17:03:28.084Z,31.30
2018-10-18T17:05:57.333Z,31.70
2018-10-18T17:08:25.452Z,32.40
2018-10-18T17:10:56.048Z,33.17
2018-10-18T17:13:23.822Z,32.97
2018-10-18T17:15:52.472Z,34.17
2018-10-18T17:18:20.198Z,32.63
2018-10-18T17:20:47.855Z,35.07
2018-10-18T17:23:15.532Z,34.17
2018-10-18T17:25:43.558Z,33.57
2018-10-18T17:28:11.883Z,33.07
2018-10-18T17:30:40.518Z,31.60
2018-10-18T17:33:08.344Z,30.27
2018-10-18T17:35:36.339Z,31.87
2018-10-18T17:38:03.945Z,32.60
2018-10-18T17:40:32.602Z,31.90
2018-10-18T17:43:06.312Z,30.30
2018-10-18T17:45:34.128Z,31.90
2018-10-18T17:48:02.322Z,34.23
2018-10-18T17:50:36.539Z,31.67
2018-10-18T17:53:06.507Z,30.17
2018-10-18T17:55:34.363Z,33.63
2018-10-18T17:58:01.992Z,30.17
2018-10-18T18:00:37.479Z,29.27
2018-10-18T18:03:05.408Z,29.63
2018-10-18T18:05:33.580Z,27.17
2018-10-18T18:08:02.614Z,30.83
2018-10-18T18:13:09.682Z,25.37
2018-10-18T18:15:37.519Z,26.47
2018-10-18T18:18:10.543Z,25.47
2018-10-18T18:20:44.271Z,23.20
2018-10-18T18:23:14.215Z,23.50
2018-10-18T18:25:46.003Z,24.27
2018-10-18T18:28:15.737Z,22.97
2018-10-18T18:30:44.345Z,22.23
2018-10-18T18:33:13.176Z,22.10
2018-10-18T18:35:49.690Z,21.10
2018-10-18T18:38:24.487Z,22.17
2018-10-18T18:41:30.196Z,24.20
2018-10-18T18:44:09.437Z,20.87
2018-10-18T18:46:38.736Z,21.10
2018-10-18T18:49:14.284Z,20.87
2018-10-18T18:51:49.472Z,20.10
2018-10-18T18:54:29.323Z,22.63
2018-10-18T18:57:00.482Z,21.17
2018-10-18T18:59:33.721Z,20.73
2018-10-18T19:02:25.242Z,19.40
2018-10-18T19:04:55.911Z,19.40
2018-10-18T19:07:25.186Z,17.90
2018-10-18T19:09:53.394Z,17.53
2018-10-18T19:12:22.313Z,17.60
2018-10-18T19:15:00.294Z,19.00
2018-10-18T19:17:41.690Z,18.50
2018-10-18T19:20:10.007Z,17.10
2018-10-18T19:22:39.974Z,18.23
2018-10-18T19:27:51.829Z,17.60
2018-10-18T19:30:27.974Z,18.33
2018-10-18T19:33:07.855Z,18.37
2018-10-18T19:35:44.288Z,18.00
2018-10-18T19:38:14.573Z,17.63
2018-10-18T19:40:42.274Z,17.30
2018-10-18T19:43:10.885Z,17.70
2018-10-18T19:45:38.925Z,18.47
2018-10-18T19:48:07.711Z,18.00
2018-10-18T19:50:38.565Z,17.73
2018-10-18T19:53:11.109Z,17.63
2018-10-18T19:55:40.249Z,18.03
2018-10-18T19:58:08.716Z,18.50
2018-10-18T20:00:36.960Z,18.50
2018-10-18T20:03:07.471Z,18.20
2018-10-18T20:05:35.268Z,18.60
2018-10-18T20:08:05.458Z,17.47
2018-10-18T20:13:46.298Z,17.70
2018-10-18T20:16:20.264Z,16.10
2018-10-18T20:18:50.178Z,17.37
2018-10-18T20:21:22.764Z,17.77
2018-10-18T20:23:57.563Z,17.33
2018-10-18T20:26:29.794Z,16.57
2018-10-18T20:29:03.337Z,18.13
2018-10-18T20:31:32.364Z,16.80
2018-10-18T20:33:59.930Z,16.00
2018-10-18T20:36:27.772Z,16.53
2018-10-18T20:39:07.921Z,15.93
2018-10-18T20:41:43.084Z,16.50
2018-10-18T20:44:19.666Z,15.60
2018-10-18T20:46:54.639Z,14.83
2018-10-18T20:52:15.197Z,16.47
2018-10-18T20:54:43.813Z,15.23
2018-10-18T20:57:14.159Z,14.67
2018-10-18T20:59:41.663Z,14.47
2018-10-18T21:02:10.073Z,14.27
2018-10-18T21:04:37.577Z,14.13
2018-10-18T21:07:05.191Z,14.13
2018-10-18T21:09:33.696Z,13.10
2018-10-18T21:12:01.842Z,14.00
2018-10-18T21:14:29.561Z,13.57
2018-10-18T21:16:58.474Z,13.10
2018-10-18T21:19:26.567Z,12.07
2018-10-18T21:21:55.353Z,12.00
2018-10-18T21:24:25.091Z,11.47
2018-10-18T21:26:53.466Z,11.03
2018-10-18T21:29:22.003Z,11.70
2018-10-18T21:31:49.665Z,11.50
2018-10-18T21:34:17.854Z,11.03
2018-10-18T21:36:46.224Z,10.87
2018-10-18T21:39:21.639Z,10.97
2018-10-18T21:41:49.170Z,11.87
2018-10-18T21:44:17.782Z,10.60
2018-10-18T21:46:46.752Z,11.13
2018-10-18T21:49:18.253Z,11.47
2018-10-18T21:51:47.762Z,10.87
2018-10-18T21:54:15.939Z,11.53
2018-10-18T21:56:44.376Z,10.83
2018-10-18T21:59:12.124Z,10.77
2018-10-18T22:01:40.304Z,10.43
2018-10-18T22:04:08.846Z,10.03
2018-10-18T22:06:36.701Z,12.20
2018-10-18T22:09:06.511Z,11.43
2018-10-18T22:11:36.282Z,10.93
2018-10-18T22:14:04.632Z,11.67
2018-10-18T22:16:32.395Z,12.30
2018-10-18T22:18:59.876Z,10.53
2018-10-18T22:21:27.346Z,11.97
2018-10-18T22:23:54.907Z,11.93
2018-10-18T22:26:22.713Z,12.40
2018-10-18T22:28:50.605Z,13.40
2018-10-18T22:31:18.342Z,12.73
2018-10-18T22:33:47.032Z,13.63
2018-10-18T22:36:16.843Z,15.47
2018-10-18T22:38:46.610Z,17.90
2018-10-18T22:41:16.386Z,19.63
2018-10-18T22:43:44.513Z,19.03
2018-10-18T22:46:12.536Z,19.30
2018-10-18T22:48:41.038Z,19.27
2018-10-18T22:51:09.746Z,18.07
2018-10-18T22:53:37.532Z,19.23
2018-10-18T22:56:07.412Z,19.13
2018-10-18T22:58:36.235Z,18.13
2018-10-18T23:01:07.044Z,20.23
2018-10-18T23:03:35.058Z,19.63
2018-10-18T23:06:04.057Z,20.73
2018-10-18T23:08:35.512Z,19.93
2018-10-18T23:11:03.595Z,20.50
2018-10-18T23:13:32.671Z,19.33
2018-10-18T23:16:08.351Z,20.03
2018-10-18T23:18:36.388Z,19.83
2018-10-18T23:21:05.043Z,20.03
2018-10-18T23:23:34.312Z,20.70
2018-10-18T23:26:02.947Z,19.27
2018-10-18T23:28:30.525Z,18.53
2018-10-18T23:30:59.021Z,19.43
2018-10-18T23:33:26.468Z,18.90
2018-10-18T23:35:54.914Z,18.07
2018-10-18T23:38:24.291Z,17.70
2018-10-18T23:40:52.247Z,18.20
2018-10-18T23:43:20.410Z,17.73
2018-10-18T23:45:52.863Z,18.90
2018-10-18T23:48:21.714Z,18.30
2018-10-18T23:50:50.631Z,18.90
2018-10-18T23:53:18.730Z,19.10
2018-10-18T23:55:47.396Z,18.87
2018-10-18T23:58:14.835Z,18.50
